Etusivu
METAR-TAF:

METAR-TAF

Lentoasemat :

Hammerfest, Norja

Leveyspiiri: 70-40N, Pituuspiiri: 023-40E, korkeus merenpinnasta: 8 m

Tämänhetkinen sää

Tämä raportti tehtiin 28 minuuttia sitten, kello 23.50 UTC
Tuuli 7 kn lounaasta
Lämpötila 7°C
Kosteus 87%
Ilmanpaine 1011 hPa
Näkyvyys 10 km tai enemmän
Muutamia pilviä 3000 ft:n korkeudessa
Hajonneita pilviä 3900 ft:n korkeudessa

METAR: ENHF 282350Z 23007KT 9999 FEW030 BKN039 07/05 Q1011 RMK WIND 1254FT 25013KT

Aika: 02:18 (00:18 UTC)

Sääennuste

Tämä raportti tehtiin 1 tunti ja 18 minuuttia sitten, kello 23.00 UTC
Ennuste voimassa 29. päivästä klo 00 UTC - 29. päivään klo 09 UTC
Tuuli 8 kn lounaasta
Näkyvyys 10 km tai enemmän
Muutamia pilviä 2000 ft:n korkeudessa, Kasvava cumulus-pilvi.
Hajonneita pilviä 3500 ft:n korkeudessa
heikkoja vesikuuroja

TAF: ENHF 282300Z 2900/2909 23008KT 9999 -SHRA FEW020TCU BKN035

Säähavainnot ja -ennusteet yli 4000 lentoasemalta (METAR- ja TAF-raportit).

Käytössä olevat sääasemat on merkitty karttaan keltaisilla ja punaisilla pisteillä.

Aseta hiiri pisteen päälle nähdäksesi sääaseman nimen.

Klikkaa sitten nähdäksesi säähavainnot ja -ennusteet.

Kartan vaihtaminen: klikkaa mustalla rastilla varustettuja vihreitä pisteitä, niin voit zoomata sisään; viivalla varustettua vihreää pistettä, niin voit zoomata ulos tai vihreitä nuolia, niin pääset viereisille kartoille.


METAR-TAF: